createdAt,value
2018-01-14T00:01:07.139Z,102836.51
2018-01-14T00:03:34.835Z,102838.91
2018-01-14T00:06:04.393Z,102835.44
2018-01-14T00:08:35.238Z,102848.94
2018-01-14T00:11:05.814Z,102840.20
2018-01-14T00:13:33.990Z,102835.53
2018-01-14T00:16:02.971Z,102830.70
2018-01-14T00:18:33.228Z,102834.05
2018-01-14T00:21:04.711Z,102827.86
2018-01-14T00:23:33.956Z,102829.23
2018-01-14T00:26:02.704Z,102816.47
2018-01-14T00:28:31.080Z,102822.47
2018-01-14T00:33:32.207Z,102817.53
2018-01-14T00:36:03.129Z,102815.52
2018-01-14T00:38:31.543Z,102822.59
2018-01-14T00:41:03.348Z,102816.41
2018-01-14T00:43:33.218Z,102809.42
2018-01-14T00:46:02.196Z,102813.88
2018-01-14T00:48:31.328Z,102812.92
2018-01-14T00:50:59.620Z,102818.38
2018-01-14T00:53:29.651Z,102813.11
2018-01-14T00:56:02.386Z,102810.16
2018-01-14T00:58:34.278Z,102814.73
2018-01-14T01:01:03.239Z,102826.33
2018-01-14T01:03:30.881Z,102807.32
2018-01-14T01:06:00.263Z,102812.63
2018-01-14T01:08:28.272Z,102818.11
2018-01-14T01:10:59.592Z,102813.23
2018-01-14T01:13:28.694Z,102825.91
2018-01-14T01:15:57.448Z,102827.06
2018-01-14T01:18:25.652Z,102821.03
2018-01-14T01:20:54.825Z,102818.29
2018-01-14T01:23:23.427Z,102807.34
2018-01-14T01:25:52.912Z,102810.42
2018-01-14T01:28:21.032Z,102806.20
2018-01-14T01:30:51.855Z,102810.92
2018-01-14T01:33:23.557Z,102811.22
2018-01-14T01:35:51.647Z,102800.08
2018-01-14T01:38:21.055Z,102794.59
2018-01-14T01:40:49.832Z,102799.95
2018-01-14T01:43:19.323Z,102797.42
2018-01-14T01:45:47.225Z,102792.67
2018-01-14T01:48:17.447Z,102796.47
2018-01-14T01:50:48.106Z,102797.97
2018-01-14T01:53:17.619Z,102787.19
2018-01-14T01:55:46.485Z,102783.72
2018-01-14T01:58:16.530Z,102784.14
2018-01-14T02:00:45.219Z,102778.12
2018-01-14T02:03:14.058Z,102785.48
2018-01-14T02:05:44.234Z,102784.45
2018-01-14T02:08:13.420Z,102783.38
2018-01-14T02:10:41.701Z,102782.55
2018-01-14T02:13:10.394Z,102774.84
2018-01-14T02:15:39.300Z,102773.30
2018-01-14T02:18:08.245Z,102778.44
2018-01-14T02:20:38.103Z,102775.61
2018-01-14T02:23:07.565Z,102778.98
2018-01-14T02:25:36.592Z,102788.04
2018-01-14T02:28:06.786Z,102770.03
2018-01-14T02:30:34.890Z,102776.55
2018-01-14T02:33:06.065Z,102775.81
2018-01-14T02:35:34.125Z,102769.36
2018-01-14T02:38:07.237Z,102772.87
2018-01-14T02:40:35.325Z,102771.92
2018-01-14T02:43:06.536Z,102776.67
2018-01-14T02:45:36.355Z,102766.77
2018-01-14T02:48:05.168Z,102766.55
2018-01-14T02:50:36.051Z,102757.70
2018-01-14T02:53:05.078Z,102761.19
2018-01-14T02:55:34.217Z,102759.48
2018-01-14T02:58:03.126Z,102753.91
2018-01-14T03:00:31.659Z,102760.25
2018-01-14T03:03:01.095Z,102762.22
2018-01-14T03:05:29.870Z,102762.77
2018-01-14T03:07:59.289Z,102765.17
2018-01-14T03:10:26.990Z,102764.36
2018-01-14T03:12:57.224Z,102763.30
2018-01-14T03:15:24.960Z,102759.70
2018-01-14T03:17:55.596Z,102756.22
2018-01-14T03:20:24.879Z,102756.74
2018-01-14T03:22:53.511Z,102754.52
2018-01-14T03:25:21.436Z,102747.05
2018-01-14T03:27:49.697Z,102742.30
2018-01-14T03:30:18.407Z,102734.41
2018-01-14T03:32:46.451Z,102743.15
2018-01-14T03:35:14.243Z,102750.22
2018-01-14T03:37:42.120Z,102747.40
2018-01-14T03:40:10.780Z,102744.53
2018-01-14T03:42:38.620Z,102744.23
2018-01-14T03:45:06.816Z,102737.47
2018-01-14T03:47:35.219Z,102746.77
2018-01-14T03:50:04.015Z,102749.91
2018-01-14T03:52:32.464Z,102743.17
2018-01-14T03:55:00.631Z,102756.03
2018-01-14T03:57:28.459Z,102750.77
2018-01-14T03:59:56.908Z,102754.45
2018-01-14T04:02:28.681Z,102743.36
2018-01-14T04:04:56.361Z,102738.83
2018-01-14T04:07:29.388Z,102741.48
2018-01-14T04:09:57.541Z,102740.92
2018-01-14T04:12:26.263Z,102738.50
2018-01-14T04:14:56.614Z,102740.81
2018-01-14T04:17:25.806Z,102741.55
2018-01-14T04:19:58.187Z,102735.77
2018-01-14T04:22:27.843Z,102743.02
2018-01-14T04:24:55.995Z,102744.08
2018-01-14T04:27:24.759Z,102737.02
2018-01-14T04:29:55.174Z,102742.69
2018-01-14T04:32:24.605Z,102736.26
2018-01-14T04:34:52.295Z,102734.03
2018-01-14T04:37:22.039Z,102739.95
2018-01-14T04:39:50.695Z,102738.67
2018-01-14T04:42:21.179Z,102747.94
2018-01-14T04:44:49.200Z,102742.55
2018-01-14T04:47:19.026Z,102749.08
2018-01-14T04:49:50.640Z,102736.51
2018-01-14T04:52:18.415Z,102732.13
2018-01-14T04:54:46.925Z,102726.51
2018-01-14T04:57:15.011Z,102737.44
2018-01-14T04:59:43.731Z,102734.73
2018-01-14T05:02:14.488Z,102729.92
2018-01-14T05:04:45.552Z,102734.34
2018-01-14T05:07:16.382Z,102736.44
2018-01-14T05:09:46.763Z,102739.02
2018-01-14T05:12:14.542Z,102738.69
2018-01-14T05:14:43.421Z,102737.02
2018-01-14T05:17:11.478Z,102734.66
2018-01-14T05:19:40.184Z,102730.09
2018-01-14T05:22:09.354Z,102734.50
2018-01-14T05:24:39.378Z,102739.43
2018-01-14T05:27:09.257Z,102744.38
2018-01-14T05:29:39.325Z,102741.44
2018-01-14T05:32:07.160Z,102742.09
2018-01-14T05:34:36.755Z,102728.62
2018-01-14T05:37:04.609Z,102732.33
2018-01-14T05:39:34.006Z,102735.97
2018-01-14T05:42:05.536Z,102742.73
2018-01-14T05:44:35.060Z,102745.50
2018-01-14T05:47:03.660Z,102740.28
2018-01-14T05:49:32.547Z,102741.17
2018-01-14T05:52:02.256Z,102740.66
2018-01-14T05:54:33.314Z,102744.98
2018-01-14T05:57:02.248Z,102741.81
2018-01-14T05:59:32.076Z,102731.41
2018-01-14T06:01:59.836Z,102735.95
2018-01-14T06:04:31.188Z,102732.23
2018-01-14T06:07:00.084Z,102731.84
2018-01-14T06:09:28.231Z,102735.52
2018-01-14T06:11:56.218Z,102736.58
2018-01-14T06:14:24.093Z,102738.81
2018-01-14T06:16:53.569Z,102737.26
2018-01-14T06:19:21.826Z,102733.55
2018-01-14T06:21:49.561Z,102724.87
2018-01-14T06:24:17.430Z,102733.60
2018-01-14T06:26:46.921Z,102728.37
2018-01-14T06:29:14.772Z,102732.36
2018-01-14T06:31:43.148Z,102732.36
2018-01-14T06:34:13.568Z,102730.25
2018-01-14T06:36:42.185Z,102732.44
2018-01-14T06:39:11.776Z,102732.96
2018-01-14T06:41:40.325Z,102734.97
2018-01-14T06:44:09.584Z,102732.66
2018-01-14T06:46:38.323Z,102736.30
2018-01-14T06:49:07.822Z,102733.27
2018-01-14T06:51:36.169Z,102740.80
2018-01-14T06:54:05.970Z,102742.68
2018-01-14T06:56:35.694Z,102747.81
2018-01-14T06:59:04.375Z,102738.54
2018-01-14T07:01:32.436Z,102740.89
2018-01-14T07:04:00.247Z,102739.45
2018-01-14T07:06:29.981Z,102740.51
2018-01-14T07:08:58.655Z,102732.69
2018-01-14T07:11:27.343Z,102731.45
2018-01-14T07:13:56.748Z,102727.56
2018-01-14T07:16:26.574Z,102732.00
2018-01-14T07:18:56.287Z,102726.83
2018-01-14T07:21:26.635Z,102732.85
2018-01-14T07:23:56.739Z,102727.30
2018-01-14T07:26:25.982Z,102733.92
2018-01-14T07:28:55.802Z,102739.91
2018-01-14T07:31:24.330Z,102741.44
2018-01-14T07:33:54.505Z,102752.03
2018-01-14T07:36:22.639Z,102760.10
2018-01-14T07:38:50.420Z,102759.12
2018-01-14T07:41:20.258Z,102763.00
2018-01-14T07:43:50.608Z,102765.95
2018-01-14T07:46:18.340Z,102768.77
2018-01-14T07:48:48.219Z,102755.83
2018-01-14T07:51:17.324Z,102758.56
2018-01-14T07:53:47.575Z,102746.25
2018-01-14T07:56:18.008Z,102751.20
2018-01-14T07:58:46.936Z,102746.25
2018-01-14T08:01:16.530Z,102747.70
2018-01-14T08:03:44.847Z,102752.95
2018-01-14T08:06:13.156Z,102759.28
2018-01-14T08:08:41.653Z,102758.98
2018-01-14T08:11:11.199Z,102762.16
2018-01-14T08:13:39.980Z,102758.48
2018-01-14T08:16:10.724Z,102751.05
2018-01-14T08:18:43.300Z,102752.08
2018-01-14T08:23:45.176Z,102744.63
2018-01-14T08:26:13.041Z,102745.80
2018-01-14T08:28:42.516Z,102747.09
2018-01-14T08:31:13.183Z,102758.16
2018-01-14T08:33:42.045Z,102757.77
2018-01-14T08:36:10.339Z,102755.64
2018-01-14T08:38:39.327Z,102750.77
2018-01-14T08:41:08.589Z,102749.53
2018-01-14T08:43:37.563Z,102739.56
2018-01-14T08:46:05.976Z,102733.19
2018-01-14T08:48:34.522Z,102740.16
2018-01-14T08:51:03.160Z,102738.67
2018-01-14T08:53:31.790Z,102737.14
2018-01-14T08:56:00.276Z,102742.22
2018-01-14T08:58:28.036Z,102741.31
2018-01-14T09:00:56.199Z,102751.63
2018-01-14T09:03:24.782Z,102750.85
2018-01-14T09:05:54.301Z,102754.11
2018-01-14T09:08:23.033Z,102755.85
2018-01-14T09:10:53.595Z,102751.32
2018-01-14T09:13:22.088Z,102752.59
2018-01-14T09:15:51.015Z,102753.80
2018-01-14T09:18:20.340Z,102748.96
2018-01-14T09:20:48.873Z,102761.11
2018-01-14T09:23:18.432Z,102751.95
2018-01-14T09:25:46.933Z,102754.76
2018-01-14T09:28:15.265Z,102764.80
2018-01-14T09:30:52.251Z,102752.91
2018-01-14T09:33:23.290Z,102756.80
2018-01-14T09:35:51.158Z,102757.14
2018-01-14T09:38:22.335Z,102749.56
2018-01-14T09:40:50.705Z,102752.15
2018-01-14T09:43:21.347Z,102748.37
2018-01-14T09:45:50.615Z,102754.19
2018-01-14T09:48:21.043Z,102760.45
2018-01-14T09:50:50.273Z,102750.86
2018-01-14T09:53:19.388Z,102755.58
2018-01-14T09:55:47.937Z,102744.75
2018-01-14T09:58:18.429Z,102742.77
2018-01-14T10:00:47.237Z,102746.23
2018-01-14T10:03:16.874Z,102748.45
2018-01-14T10:05:44.833Z,102744.98
2018-01-14T10:08:14.643Z,102738.67
2018-01-14T10:10:44.197Z,102739.37
2018-01-14T10:13:13.839Z,102746.21
2018-01-14T10:15:41.918Z,102741.66
2018-01-14T10:18:13.895Z,102736.01
2018-01-14T10:20:44.027Z,102742.86
2018-01-14T10:23:11.786Z,102739.69
2018-01-14T10:25:42.046Z,102731.13
2018-01-14T10:28:13.118Z,102736.76
2018-01-14T10:30:43.059Z,102737.75
2018-01-14T10:33:11.608Z,102731.97
2018-01-14T10:35:39.998Z,102729.73
2018-01-14T10:38:09.787Z,102717.83
2018-01-14T10:40:38.272Z,102728.13
2018-01-14T10:43:09.236Z,102736.06
2018-01-14T10:45:38.541Z,102725.83
2018-01-14T10:48:07.420Z,102714.41
2018-01-14T10:50:36.875Z,102722.78
2018-01-14T10:53:05.495Z,102719.09
2018-01-14T10:55:34.103Z,102717.75
2018-01-14T10:58:01.827Z,102726.16
2018-01-14T11:00:51.361Z,102721.08
2018-01-14T11:03:20.263Z,102714.44
2018-01-14T11:05:51.005Z,102704.63
2018-01-14T11:08:21.258Z,102696.19
2018-01-14T11:10:50.753Z,102691.58
2018-01-14T11:13:18.959Z,102693.77
2018-01-14T11:15:47.357Z,102691.26
2018-01-14T11:18:20.808Z,102690.13
2018-01-14T11:20:50.807Z,102682.83
2018-01-14T11:23:21.313Z,102680.53
2018-01-14T11:25:51.284Z,102678.41
2018-01-14T11:28:19.953Z,102671.00
2018-01-14T11:30:47.591Z,102664.91
2018-01-14T11:33:16.901Z,102672.09
2018-01-14T11:35:44.840Z,102678.41
2018-01-14T11:38:14.864Z,102672.73
2018-01-14T11:40:42.847Z,102668.83
2018-01-14T11:43:10.779Z,102662.93
2018-01-14T11:45:38.783Z,102667.02
2018-01-14T11:48:07.492Z,102673.66
2018-01-14T11:50:35.366Z,102670.91
2018-01-14T11:53:03.856Z,102661.55
2018-01-14T11:55:33.298Z,102674.02
2018-01-14T11:58:01.507Z,102668.21
2018-01-14T12:00:32.424Z,102667.16
2018-01-14T12:03:01.159Z,102656.48
2018-01-14T12:05:29.771Z,102657.95
2018-01-14T12:07:58.564Z,102659.42
2018-01-14T12:10:28.343Z,102654.58
2018-01-14T12:12:57.312Z,102658.39
2018-01-14T12:15:25.736Z,102651.84
2018-01-14T12:17:55.524Z,102646.14
2018-01-14T12:20:26.386Z,102650.16
2018-01-14T12:22:55.927Z,102649.20
2018-01-14T12:25:25.444Z,102640.56
2018-01-14T12:27:54.280Z,102647.41
2018-01-14T12:30:25.251Z,102634.21
2018-01-14T12:33:09.164Z,102636.95
2018-01-14T12:35:37.862Z,102638.66
2018-01-14T12:38:08.297Z,102622.73
2018-01-14T12:40:36.388Z,102612.18
2018-01-14T12:43:05.528Z,102604.05
2018-01-14T12:45:34.505Z,102619.25
2018-01-14T12:48:02.403Z,102612.29
2018-01-14T12:50:31.246Z,102606.59
2018-01-14T12:53:00.955Z,102599.32
2018-01-14T12:55:31.668Z,102596.56
2018-01-14T12:57:59.978Z,102606.48
2018-01-14T13:00:28.612Z,102606.27
2018-01-14T13:02:58.327Z,102604.70
2018-01-14T13:05:27.017Z,102600.56
2018-01-14T13:07:56.646Z,102594.78
2018-01-14T13:10:27.786Z,102597.52
2018-01-14T13:12:57.920Z,102601.62
2018-01-14T13:15:25.728Z,102607.22
2018-01-14T13:17:53.802Z,102608.92
2018-01-14T13:23:00.755Z,102600.80
2018-01-14T13:25:29.604Z,102594.14
2018-01-14T13:27:57.495Z,102593.51
2018-01-14T13:30:25.916Z,102602.90
2018-01-14T13:32:56.632Z,102600.99
2018-01-14T13:35:24.855Z,102603.92
2018-01-14T13:37:54.440Z,102603.72
2018-01-14T13:40:23.007Z,102601.19
2018-01-14T13:42:51.565Z,102603.52
2018-01-14T13:45:20.718Z,102600.87
2018-01-14T13:47:50.644Z,102593.91
2018-01-14T13:50:21.006Z,102600.66
2018-01-14T13:52:50.206Z,102603.09
2018-01-14T13:55:20.451Z,102594.94
2018-01-14T13:57:49.919Z,102602.00
2018-01-14T14:00:20.727Z,102596.21
2018-01-14T14:02:50.261Z,102593.99
2018-01-14T14:05:19.927Z,102593.77
2018-01-14T14:07:48.028Z,102589.97
2018-01-14T14:10:18.422Z,102587.84
2018-01-14T14:12:48.450Z,102584.67
2018-01-14T14:15:18.770Z,102584.89
2018-01-14T14:17:47.321Z,102591.97
2018-01-14T14:20:18.801Z,102602.08
2018-01-14T14:22:46.585Z,102587.00
2018-01-14T14:25:16.764Z,102595.63
2018-01-14T14:27:46.167Z,102588.33
2018-01-14T14:30:14.747Z,102576.44
2018-01-14T14:32:42.548Z,102588.64
2018-01-14T14:35:11.463Z,102578.31
2018-01-14T14:37:40.876Z,102578.20
2018-01-14T14:40:09.498Z,102583.57
2018-01-14T14:42:37.246Z,102579.33
2018-01-14T14:45:08.195Z,102575.95
2018-01-14T14:47:36.352Z,102577.94
2018-01-14T14:50:05.540Z,102573.38
2018-01-14T14:52:33.755Z,102575.16
2018-01-14T14:55:03.783Z,102575.47
2018-01-14T14:57:31.926Z,102570.91
2018-01-14T15:00:01.703Z,102570.06
2018-01-14T15:02:32.379Z,102563.41
2018-01-14T15:05:02.751Z,102566.15
2018-01-14T15:07:31.122Z,102564.97
2018-01-14T15:09:59.318Z,102558.01
2018-01-14T15:12:27.149Z,102553.12
2018-01-14T15:14:55.290Z,102553.64
2018-01-14T15:17:25.095Z,102554.67
2018-01-14T15:19:53.373Z,102554.22
2018-01-14T15:22:24.592Z,102539.05
2018-01-14T15:24:54.264Z,102544.28
2018-01-14T15:29:56.600Z,102530.80
2018-01-14T15:32:25.823Z,102534.98
2018-01-14T15:34:54.240Z,102539.88
2018-01-14T15:37:22.691Z,102533.05
2018-01-14T15:39:50.815Z,102537.45
2018-01-14T15:42:19.640Z,102534.93
2018-01-14T15:44:50.160Z,102533.62
2018-01-14T15:47:19.905Z,102531.92
2018-01-14T15:49:47.765Z,102531.25
2018-01-14T15:52:18.261Z,102525.99
2018-01-14T15:54:48.972Z,102527.88
2018-01-14T15:57:17.936Z,102524.28
2018-01-14T15:59:45.867Z,102534.46
2018-01-14T16:02:14.085Z,102523.41
2018-01-14T16:04:43.875Z,102523.19
2018-01-14T16:07:13.347Z,102528.02
2018-01-14T16:09:44.217Z,102517.69
2018-01-14T16:12:13.928Z,102524.39
2018-01-14T16:14:43.392Z,102526.24
2018-01-14T16:17:11.231Z,102530.98
2018-01-14T16:19:39.245Z,102525.64
2018-01-14T16:22:10.302Z,102531.16
2018-01-14T16:24:39.199Z,102525.56
2018-01-14T16:27:06.993Z,102535.55
2018-01-14T16:29:35.328Z,102540.50
2018-01-14T16:32:06.612Z,102536.67
2018-01-14T16:34:34.432Z,102546.53
2018-01-14T16:37:03.731Z,102542.22
2018-01-14T16:39:32.599Z,102542.34
2018-01-14T16:42:00.753Z,102538.97
2018-01-14T16:44:29.185Z,102530.55
2018-01-14T16:46:57.723Z,102535.65
2018-01-14T16:49:26.640Z,102540.98
2018-01-14T16:51:57.698Z,102549.65
2018-01-14T16:54:26.633Z,102537.61
2018-01-14T16:56:58.903Z,102545.63
2018-01-14T16:59:27.116Z,102533.52
2018-01-14T17:01:55.323Z,102536.20
2018-01-14T17:04:23.696Z,102532.56
2018-01-14T17:06:53.408Z,102535.84
2018-01-14T17:09:22.248Z,102543.37
2018-01-14T17:11:52.441Z,102540.55
2018-01-14T17:14:21.542Z,102531.36
2018-01-14T17:16:54.145Z,102529.57
2018-01-14T17:19:24.162Z,102528.38
2018-01-14T17:21:52.056Z,102528.16
2018-01-14T17:24:21.499Z,102533.46
2018-01-14T17:26:53.465Z,102527.27
2018-01-14T17:29:21.909Z,102529.49
2018-01-14T17:31:52.358Z,102529.57
2018-01-14T17:34:20.799Z,102527.52
2018-01-14T17:36:49.863Z,102530.77
2018-01-14T17:39:20.073Z,102525.22
2018-01-14T17:41:49.624Z,102517.45
2018-01-14T17:44:21.594Z,102511.85
2018-01-14T17:46:50.657Z,102511.43
2018-01-14T17:49:18.440Z,102503.41
2018-01-14T17:51:46.520Z,102501.23
2018-01-14T17:54:14.875Z,102501.19
2018-01-14T17:56:45.819Z,102486.03
2018-01-14T17:59:16.698Z,102492.35
2018-01-14T18:01:45.385Z,102485.91
2018-01-14T18:04:13.420Z,102481.77
2018-01-14T18:06:43.360Z,102485.83
2018-01-14T18:09:12.347Z,102471.31
2018-01-14T18:11:40.975Z,102471.06
2018-01-14T18:14:11.185Z,102471.19
2018-01-14T18:19:33.601Z,102478.40
2018-01-14T18:22:01.528Z,102469.83
2018-01-14T18:24:29.204Z,102466.70
2018-01-14T18:26:56.876Z,102472.12
2018-01-14T18:29:24.818Z,102458.56
2018-01-14T18:31:52.621Z,102462.86
2018-01-14T18:34:20.308Z,102460.22
2018-01-14T18:36:48.074Z,102452.03
2018-01-14T18:39:15.739Z,102458.47
2018-01-14T18:41:43.661Z,102462.02
2018-01-14T18:44:11.383Z,102457.06
2018-01-14T18:46:39.309Z,102457.70
2018-01-14T18:49:07.000Z,102453.73
2018-01-14T18:51:34.688Z,102459.33
2018-01-14T18:54:02.370Z,102459.23
2018-01-14T18:56:30.098Z,102447.28
2018-01-14T18:58:57.959Z,102451.17
2018-01-14T19:01:25.706Z,102445.06
2018-01-14T19:03:53.387Z,102441.57
2018-01-14T19:06:21.125Z,102430.56
2018-01-14T19:08:48.837Z,102443.28
2018-01-14T19:11:16.558Z,102438.17
2018-01-14T19:13:45.230Z,102441.23
2018-01-14T19:16:12.962Z,102443.66
2018-01-14T19:18:40.762Z,102441.36
2018-01-14T19:21:08.627Z,102439.02
2018-01-14T19:23:36.321Z,102444.27
2018-01-14T19:26:04.004Z,102440.20
2018-01-14T19:28:31.694Z,102436.49
2018-01-14T19:30:59.415Z,102436.58
2018-01-14T19:33:27.141Z,102435.12
2018-01-14T19:35:54.819Z,102435.39
2018-01-14T19:38:22.556Z,102431.45
2018-01-14T19:40:50.239Z,102436.92
2018-01-14T19:43:17.942Z,102441.62
2018-01-14T19:45:45.612Z,102439.31
2018-01-14T19:48:13.431Z,102435.22
2018-01-14T19:50:41.228Z,102442.00
2018-01-14T19:53:08.959Z,102426.26
2018-01-14T19:55:36.702Z,102419.34
2018-01-14T19:58:04.435Z,102423.78
2018-01-14T20:00:32.211Z,102428.22
2018-01-14T20:02:59.915Z,102422.30
2018-01-14T20:05:27.611Z,102419.64
2018-01-14T20:07:55.352Z,102415.94
2018-01-14T20:10:23.051Z,102408.22
2018-01-14T20:12:50.928Z,102414.95
2018-01-14T20:15:18.597Z,102408.34
2018-01-14T20:17:46.315Z,102405.44
2018-01-14T20:20:13.957Z,102393.32
2018-01-14T20:22:41.704Z,102401.77
2018-01-14T20:25:09.387Z,102393.11
2018-01-14T20:27:37.068Z,102394.77
2018-01-14T20:30:04.772Z,102397.80
2018-01-14T20:32:32.502Z,102393.67
2018-01-14T20:35:00.189Z,102396.14
2018-01-14T20:37:27.950Z,102394.65
2018-01-14T20:39:55.814Z,102397.30
2018-01-14T20:42:23.600Z,102386.50
2018-01-14T20:44:55.024Z,102382.62
2018-01-14T20:47:22.799Z,102380.61
2018-01-14T20:49:50.628Z,102371.48
2018-01-14T20:52:19.126Z,102379.20
2018-01-14T20:54:46.807Z,102383.77
2018-01-14T20:57:14.543Z,102387.83
2018-01-14T20:59:42.217Z,102392.55
2018-01-14T21:02:09.951Z,102386.42
2018-01-14T21:04:37.631Z,102380.83
2018-01-14T21:07:05.348Z,102388.25
2018-01-14T21:09:33.027Z,102394.52
2018-01-14T21:12:00.935Z,102394.39
2018-01-14T21:14:28.626Z,102394.66
2018-01-14T21:16:56.312Z,102390.64
2018-01-14T21:19:24.061Z,102389.36
2018-01-14T21:21:51.703Z,102387.61
2018-01-14T21:24:19.379Z,102392.34
2018-01-14T21:26:47.198Z,102395.25
2018-01-14T21:29:14.910Z,102394.98
2018-01-14T21:31:43.433Z,102396.19
2018-01-14T21:34:11.152Z,102387.06
2018-01-14T21:36:38.854Z,102381.94
2018-01-14T21:39:06.591Z,102379.72
2018-01-14T21:41:34.328Z,102373.49
2018-01-14T21:44:02.024Z,102372.85
2018-01-14T21:46:29.741Z,102364.84
2018-01-14T21:48:57.492Z,102371.06
2018-01-14T21:51:25.245Z,102371.83
2018-01-14T21:53:53.152Z,102375.20
2018-01-14T21:56:20.908Z,102369.31
2018-01-14T21:58:48.596Z,102368.16
2018-01-14T22:01:16.801Z,102355.75
2018-01-14T22:03:44.481Z,102363.47
2018-01-14T22:06:12.234Z,102356.61
2018-01-14T22:08:39.993Z,102353.62
2018-01-14T22:11:07.750Z,102355.88
2018-01-14T22:13:35.438Z,102353.55
2018-01-14T22:16:03.136Z,102347.02
2018-01-14T22:18:30.853Z,102351.70
2018-01-14T22:20:58.539Z,102340.27
2018-01-14T22:23:26.345Z,102327.35
2018-01-14T22:25:53.997Z,102320.41
2018-01-14T22:28:21.791Z,102321.26
2018-01-14T22:30:49.626Z,102316.70
2018-01-14T22:33:17.296Z,102311.30
2018-01-14T22:35:44.937Z,102311.84
2018-01-14T22:38:12.632Z,102310.35
2018-01-14T22:40:40.409Z,102317.67
2018-01-14T22:43:08.201Z,102307.32
2018-01-14T22:45:35.892Z,102307.49
2018-01-14T22:48:03.569Z,102303.06
2018-01-14T22:50:31.197Z,102304.42
2018-01-14T22:52:58.931Z,102304.81
2018-01-14T22:55:26.560Z,102302.29
2018-01-14T22:57:55.705Z,102292.40
2018-01-14T23:00:26.333Z,102284.01
2018-01-14T23:02:54.211Z,102290.27
2018-01-14T23:05:21.892Z,102274.20
2018-01-14T23:07:49.689Z,102268.33
2018-01-14T23:10:17.405Z,102259.80
2018-01-14T23:12:45.156Z,102249.19
2018-01-14T23:15:12.828Z,102252.69
2018-01-14T23:17:40.470Z,102246.38
2018-01-14T23:20:08.191Z,102251.88
2018-01-14T23:22:36.018Z,102251.53
2018-01-14T23:25:03.869Z,102252.69
2018-01-14T23:27:32.078Z,102245.56
2018-01-14T23:29:59.908Z,102241.56
2018-01-14T23:32:27.632Z,102243.77
2018-01-14T23:34:55.482Z,102239.77
2018-01-14T23:37:23.257Z,102243.02
2018-01-14T23:39:50.928Z,102238.02
2018-01-14T23:42:18.547Z,102236.66
2018-01-14T23:44:46.335Z,102231.33
2018-01-14T23:47:14.044Z,102228.18
2018-01-14T23:49:41.912Z,102219.27
2018-01-14T23:52:09.611Z,102219.69
2018-01-14T23:54:37.468Z,102220.30
2018-01-14T23:57:05.182Z,102209.17
2018-01-14T23:59:33.031Z,102207.89
